createdAt,value
2018-05-31T00:01:42.302Z,20.43
2018-05-31T00:04:09.881Z,20.62
2018-05-31T00:06:37.512Z,20.39
2018-05-31T00:09:05.337Z,20.46
2018-05-31T00:11:32.135Z,20.57
2018-05-31T00:13:59.039Z,20.41
2018-05-31T00:16:25.834Z,20.43
2018-05-31T00:18:52.627Z,20.47
2018-05-31T00:21:19.692Z,20.47
2018-05-31T00:23:46.470Z,20.53
2018-05-31T00:26:14.016Z,20.29
2018-05-31T00:28:41.004Z,20.26
2018-05-31T00:31:07.781Z,20.34
2018-05-31T00:33:34.606Z,20.22
2018-05-31T00:36:01.448Z,20.16
2018-05-31T00:38:28.236Z,20.26
2018-05-31T00:40:55.035Z,20.17
2018-05-31T00:43:21.927Z,20.24
2018-05-31T00:45:48.788Z,20.19
2018-05-31T00:48:16.341Z,20.10
2018-05-31T00:50:43.330Z,20.01
2018-05-31T00:53:10.114Z,19.67
2018-05-31T00:55:55.311Z,19.73
2018-05-31T00:58:22.146Z,20.10
2018-05-31T01:00:49.751Z,20.20
2018-05-31T01:03:16.740Z,19.91
2018-05-31T01:05:43.535Z,19.91
2018-05-31T01:08:10.645Z,19.32
2018-05-31T01:10:37.531Z,19.26
2018-05-31T01:13:04.339Z,19.54
2018-05-31T01:15:36.989Z,19.76
2018-05-31T01:18:03.845Z,19.58
2018-05-31T01:20:30.647Z,19.41
2018-05-31T01:22:57.508Z,19.51
2018-05-31T01:25:24.411Z,19.72
2018-05-31T01:27:51.164Z,19.72
2018-05-31T01:30:18.689Z,19.57
2018-05-31T01:32:45.517Z,19.51
2018-05-31T01:35:13.099Z,19.70
2018-05-31T01:37:39.892Z,19.84
2018-05-31T01:40:06.736Z,19.70
2018-05-31T01:42:33.541Z,19.69
2018-05-31T01:45:00.336Z,19.73
2018-05-31T01:47:28.363Z,19.63
2018-05-31T01:49:55.904Z,19.27
2018-05-31T01:52:23.460Z,19.68
2018-05-31T01:54:50.284Z,19.29
2018-05-31T01:57:17.083Z,19.09
2018-05-31T01:59:43.932Z,19.44
2018-05-31T02:02:10.802Z,19.27
2018-05-31T02:04:37.608Z,19.37
2018-05-31T02:07:05.158Z,19.32
2018-05-31T02:09:32.267Z,19.41
2018-05-31T02:11:59.865Z,19.34
2018-05-31T02:14:26.661Z,19.11
2018-05-31T02:16:53.623Z,18.77
2018-05-31T02:19:20.464Z,18.85
2018-05-31T02:21:47.256Z,18.63
2018-05-31T02:24:14.143Z,18.56
2018-05-31T02:26:40.936Z,18.80
2018-05-31T02:29:08.476Z,18.92
2018-05-31T02:31:35.308Z,19.05
2018-05-31T02:34:02.124Z,19.12
2018-05-31T02:36:28.967Z,19.20
2018-05-31T02:38:55.840Z,19.01
2018-05-31T02:41:22.652Z,19.00
2018-05-31T02:43:49.463Z,19.03
2018-05-31T02:46:16.416Z,18.97
2018-05-31T02:48:43.275Z,19.07
2018-05-31T02:51:10.117Z,19.00
2018-05-31T02:53:36.949Z,19.03
2018-05-31T02:56:03.781Z,19.22
2018-05-31T02:58:31.315Z,19.26
2018-05-31T03:00:58.924Z,19.23
2018-05-31T03:03:25.840Z,19.21
2018-05-31T03:05:52.630Z,19.06
2018-05-31T03:08:19.464Z,19.12
2018-05-31T03:10:46.320Z,18.85
2018-05-31T03:13:13.915Z,18.73
2018-05-31T03:15:40.699Z,18.64
2018-05-31T03:18:07.549Z,18.80
2018-05-31T03:20:34.372Z,19.07
2018-05-31T03:23:01.907Z,19.05
2018-05-31T03:25:28.794Z,19.11
2018-05-31T03:27:55.645Z,19.07
2018-05-31T03:30:22.475Z,18.98
2018-05-31T03:32:50.050Z,18.66
2018-05-31T03:35:16.862Z,18.95
2018-05-31T03:37:43.892Z,18.83
2018-05-31T03:40:10.676Z,18.92
2018-05-31T03:42:38.212Z,19.03
2018-05-31T03:45:05.172Z,19.02
2018-05-31T03:47:31.977Z,19.07
2018-05-31T03:49:59.560Z,19.16
2018-05-31T03:52:26.413Z,19.03
2018-05-31T03:54:53.977Z,19.01
2018-05-31T03:57:21.520Z,19.01
2018-05-31T03:59:48.491Z,18.88
2018-05-31T04:02:15.322Z,18.87
2018-05-31T04:04:42.338Z,19.09
2018-05-31T04:07:09.168Z,19.03
2018-05-31T04:09:37.578Z,18.81
2018-05-31T04:12:04.375Z,18.99
2018-05-31T04:14:31.269Z,19.10
2018-05-31T04:16:58.054Z,19.13
2018-05-31T04:19:24.891Z,19.25
2018-05-31T04:21:51.760Z,19.10
2018-05-31T04:24:18.616Z,19.38
2018-05-31T04:26:45.616Z,19.36
2018-05-31T04:29:13.189Z,19.48
2018-05-31T04:31:40.035Z,19.41
2018-05-31T04:34:06.870Z,19.72
2018-05-31T04:36:33.708Z,20.24
2018-05-31T04:39:00.570Z,19.96
2018-05-31T04:41:27.377Z,20.43
2018-05-31T04:43:54.202Z,20.20
2018-05-31T04:46:21.754Z,20.38
2018-05-31T04:48:48.560Z,20.08
2018-05-31T04:51:15.469Z,20.70
2018-05-31T04:53:42.280Z,21.17
2018-05-31T04:56:09.288Z,21.49
2018-05-31T04:58:36.859Z,21.79
2018-05-31T05:01:03.648Z,22.30
2018-05-31T05:03:30.512Z,22.16
2018-05-31T05:05:57.344Z,22.18
2018-05-31T05:08:24.144Z,22.42
2018-05-31T05:10:50.943Z,22.18
2018-05-31T05:13:17.772Z,21.67
2018-05-31T05:15:45.424Z,21.72
2018-05-31T05:18:12.223Z,21.04
2018-05-31T05:20:39.057Z,21.10
2018-05-31T05:23:06.587Z,21.17
2018-05-31T05:25:33.373Z,21.46
2018-05-31T05:28:00.268Z,21.99
2018-05-31T05:30:27.835Z,22.95
2018-05-31T05:32:54.620Z,23.40
2018-05-31T05:35:21.569Z,23.33
2018-05-31T05:37:48.411Z,22.43
2018-05-31T05:40:15.287Z,21.73
2018-05-31T05:42:42.240Z,21.92
2018-05-31T05:45:15.773Z,22.48
2018-05-31T05:47:42.611Z,22.27
2018-05-31T05:50:09.441Z,22.67
2018-05-31T05:52:37.017Z,23.86
2018-05-31T05:55:04.029Z,22.96
2018-05-31T05:57:30.840Z,22.92
2018-05-31T05:59:57.636Z,23.84
2018-05-31T06:02:24.472Z,23.11
2018-05-31T06:04:52.050Z,23.48
2018-05-31T06:07:18.836Z,23.38
2018-05-31T06:09:45.661Z,22.85
2018-05-31T06:12:12.459Z,23.14
2018-05-31T06:14:39.258Z,22.64
2018-05-31T06:17:06.236Z,24.05
2018-05-31T06:19:33.016Z,24.46
2018-05-31T06:21:59.857Z,23.98
2018-05-31T06:24:26.681Z,24.69
2018-05-31T06:26:53.496Z,23.92
2018-05-31T06:29:20.444Z,24.20
2018-05-31T06:31:47.287Z,25.45
2018-05-31T06:34:14.091Z,25.13
2018-05-31T06:36:40.871Z,24.65
2018-05-31T06:39:07.721Z,25.80
2018-05-31T06:41:35.582Z,26.10
2018-05-31T06:44:02.432Z,24.99
2018-05-31T06:46:29.259Z,25.59
2018-05-31T06:48:56.780Z,25.59
2018-05-31T06:51:23.817Z,25.77
2018-05-31T06:53:51.515Z,25.08
2018-05-31T06:56:19.032Z,25.69
2018-05-31T06:58:45.809Z,26.02
2018-05-31T07:01:12.771Z,24.65
2018-05-31T07:03:40.284Z,25.80
2018-05-31T07:06:07.860Z,25.82
2018-05-31T07:08:34.712Z,25.31
2018-05-31T07:11:01.484Z,25.11
2018-05-31T07:13:29.003Z,26.00
2018-05-31T07:15:56.053Z,26.77
2018-05-31T07:18:22.851Z,26.23
2018-05-31T07:20:49.637Z,26.88
2018-05-31T07:23:16.460Z,26.57
2018-05-31T07:25:43.252Z,26.21
2018-05-31T07:28:10.104Z,27.13
2018-05-31T07:30:37.006Z,27.32
2018-05-31T07:33:03.802Z,25.45
2018-05-31T07:35:30.624Z,26.73
2018-05-31T07:37:57.407Z,27.69
2018-05-31T07:40:24.179Z,27.53
2018-05-31T07:42:51.096Z,27.03
2018-05-31T07:45:24.028Z,27.54
2018-05-31T07:47:50.864Z,28.65
2018-05-31T07:50:17.692Z,27.39
2018-05-31T07:52:44.469Z,28.57
2018-05-31T07:55:11.347Z,27.91
2018-05-31T07:57:38.163Z,27.98
2018-05-31T08:00:04.988Z,27.82
2018-05-31T08:02:31.807Z,28.29
2018-05-31T08:04:58.636Z,28.95
2018-05-31T08:07:25.460Z,29.07
2018-05-31T08:09:52.976Z,29.52
2018-05-31T08:12:19.788Z,28.16
2018-05-31T08:14:46.558Z,28.12
2018-05-31T08:17:17.692Z,28.93
2018-05-31T08:19:45.304Z,29.15
2018-05-31T08:22:12.833Z,28.83
2018-05-31T08:24:39.673Z,28.10
2018-05-31T08:27:06.452Z,28.17
2018-05-31T08:29:33.983Z,28.09
2018-05-31T08:32:00.857Z,28.38
2018-05-31T08:34:28.676Z,28.85
2018-05-31T08:36:55.522Z,28.94
2018-05-31T08:39:22.386Z,29.23
2018-05-31T08:41:49.155Z,29.66
2018-05-31T08:44:16.034Z,30.65
2018-05-31T08:46:42.880Z,29.93
2018-05-31T08:49:09.684Z,29.92
2018-05-31T08:51:37.276Z,29.22
2018-05-31T08:54:04.087Z,30.19
2018-05-31T08:56:31.740Z,29.08
2018-05-31T08:58:59.262Z,29.59
2018-05-31T09:01:26.072Z,29.46
2018-05-31T09:03:52.840Z,30.06
2018-05-31T09:06:19.657Z,29.63
2018-05-31T09:08:46.522Z,29.09
2018-05-31T09:11:13.357Z,29.58
2018-05-31T09:13:40.265Z,30.15
2018-05-31T09:16:07.084Z,29.46
2018-05-31T09:18:33.873Z,30.05
2018-05-31T09:21:01.074Z,30.13
2018-05-31T09:23:27.851Z,29.63
2018-05-31T09:25:55.380Z,30.31
2018-05-31T09:28:22.213Z,29.83
2018-05-31T09:30:49.034Z,31.04
2018-05-31T09:33:15.864Z,30.59
2018-05-31T09:35:42.675Z,31.11
2018-05-31T09:38:09.486Z,30.04
2018-05-31T09:40:36.360Z,30.64
2018-05-31T09:43:03.180Z,30.54
2018-05-31T09:45:35.936Z,31.15
2018-05-31T09:48:03.012Z,31.48
2018-05-31T09:50:29.792Z,31.64
2018-05-31T09:52:57.328Z,30.18
2018-05-31T09:55:24.145Z,29.91
2018-05-31T09:57:51.708Z,30.13
2018-05-31T10:00:18.531Z,31.31
2018-05-31T10:02:45.309Z,30.57
2018-05-31T10:05:12.137Z,30.88
2018-05-31T10:07:38.947Z,31.20
2018-05-31T10:10:05.788Z,31.13
2018-05-31T10:12:32.602Z,30.53
2018-05-31T10:14:59.369Z,30.97
2018-05-31T10:17:26.915Z,30.86
2018-05-31T10:19:54.424Z,30.46
2018-05-31T10:22:21.260Z,31.14
2018-05-31T10:24:48.088Z,30.77
2018-05-31T10:27:14.851Z,29.97
2018-05-31T10:29:41.673Z,30.68
2018-05-31T10:32:08.459Z,30.63
2018-05-31T10:34:35.355Z,31.20
2018-05-31T10:37:02.190Z,31.67
2018-05-31T10:39:29.776Z,31.05
2018-05-31T10:41:56.769Z,31.70
2018-05-31T10:44:23.543Z,31.50
2018-05-31T10:46:50.363Z,31.89
2018-05-31T10:49:17.159Z,31.57
2018-05-31T10:51:43.911Z,30.88
2018-05-31T10:54:10.752Z,30.62
2018-05-31T10:56:37.522Z,31.12
2018-05-31T10:59:04.532Z,30.37
2018-05-31T11:01:31.303Z,31.00
2018-05-31T11:03:58.072Z,31.55
2018-05-31T11:06:24.889Z,31.34
2018-05-31T11:08:51.651Z,31.25
2018-05-31T11:11:18.638Z,31.74
2018-05-31T11:13:45.391Z,30.98
2018-05-31T11:16:12.189Z,30.56
2018-05-31T11:18:39.014Z,30.56
2018-05-31T11:21:05.805Z,31.09
2018-05-31T11:23:32.712Z,31.28
2018-05-31T11:25:59.491Z,30.85
2018-05-31T11:28:26.264Z,30.59
2018-05-31T11:30:53.098Z,30.93
2018-05-31T11:33:19.873Z,31.01
2018-05-31T11:35:46.760Z,31.20
2018-05-31T11:38:13.599Z,30.29
2018-05-31T11:40:41.169Z,30.45
2018-05-31T11:43:07.996Z,30.27
2018-05-31T11:45:40.819Z,30.31
2018-05-31T11:48:08.535Z,30.63
2018-05-31T11:50:35.311Z,30.65
2018-05-31T11:53:02.086Z,30.82
2018-05-31T11:55:28.934Z,30.85
2018-05-31T11:57:55.713Z,31.68
2018-05-31T12:00:22.620Z,31.73
2018-05-31T12:02:49.419Z,31.64
2018-05-31T12:05:16.215Z,31.23
2018-05-31T12:07:43.062Z,31.42
2018-05-31T12:10:09.845Z,31.09
2018-05-31T12:12:36.732Z,30.56
2018-05-31T12:15:03.609Z,30.50
2018-05-31T12:17:30.449Z,30.48
2018-05-31T12:19:57.972Z,31.19
2018-05-31T12:22:24.812Z,31.58
2018-05-31T12:24:52.383Z,32.10
2018-05-31T12:27:19.166Z,32.26
2018-05-31T12:29:46.735Z,31.74
2018-05-31T12:32:14.270Z,32.40
2018-05-31T12:34:41.119Z,32.28
2018-05-31T12:37:07.966Z,32.29
2018-05-31T12:39:34.784Z,31.84
2018-05-31T12:42:01.611Z,31.88
2018-05-31T12:44:28.387Z,32.02
2018-05-31T12:46:55.342Z,31.62
2018-05-31T12:49:22.187Z,31.44
2018-05-31T12:51:48.988Z,31.94
2018-05-31T12:54:15.815Z,32.06
2018-05-31T12:56:42.636Z,31.80
2018-05-31T12:59:10.156Z,31.75
2018-05-31T13:01:37.020Z,31.64
2018-05-31T13:04:03.804Z,31.74
2018-05-31T13:06:30.595Z,32.01
2018-05-31T13:08:57.416Z,31.34
2018-05-31T13:11:24.200Z,31.23
2018-05-31T13:13:51.068Z,31.31
2018-05-31T13:16:18.007Z,31.35
2018-05-31T13:18:45.563Z,31.43
2018-05-31T13:21:13.109Z,31.85
2018-05-31T13:23:39.939Z,31.49
2018-05-31T13:26:06.853Z,31.34
2018-05-31T13:28:33.855Z,31.37
2018-05-31T13:31:01.396Z,31.46
2018-05-31T13:33:28.236Z,31.31
2018-05-31T13:35:55.071Z,31.48
2018-05-31T13:38:21.881Z,31.65
2018-05-31T13:40:48.750Z,32.04
2018-05-31T13:43:15.528Z,32.03
2018-05-31T13:45:43.147Z,32.00
2018-05-31T13:48:09.965Z,31.63
2018-05-31T13:50:36.844Z,31.27
2018-05-31T13:53:03.632Z,31.75
2018-05-31T13:55:31.339Z,31.78
2018-05-31T13:57:58.117Z,31.20
2018-05-31T14:00:24.904Z,31.71
2018-05-31T14:02:51.780Z,32.19
2018-05-31T14:05:18.587Z,32.31
2018-05-31T14:07:45.399Z,32.16
2018-05-31T14:10:12.909Z,31.68
2018-05-31T14:12:39.678Z,32.14
2018-05-31T14:15:12.725Z,31.54
2018-05-31T14:17:39.499Z,31.31
2018-05-31T14:20:06.320Z,31.52
2018-05-31T14:22:33.156Z,31.96
2018-05-31T14:25:00.115Z,32.49
2018-05-31T14:27:27.702Z,32.50
2018-05-31T14:29:54.483Z,32.41
2018-05-31T14:32:22.192Z,32.48
2018-05-31T14:34:48.975Z,32.66
2018-05-31T14:37:16.548Z,32.02
2018-05-31T14:39:43.454Z,32.76
2018-05-31T14:42:10.344Z,32.57
2018-05-31T14:44:37.183Z,32.57
2018-05-31T14:47:04.707Z,32.24
2018-05-31T14:49:31.767Z,32.57
2018-05-31T14:51:58.622Z,32.99
2018-05-31T14:54:26.150Z,32.60
2018-05-31T14:56:53.003Z,32.68
2018-05-31T14:59:19.808Z,32.37
2018-05-31T15:01:46.640Z,32.56
2018-05-31T15:04:13.502Z,32.47
2018-05-31T15:06:40.312Z,32.69
2018-05-31T15:09:08.235Z,32.85
2018-05-31T15:11:35.010Z,32.74
2018-05-31T15:14:02.599Z,32.59
2018-05-31T15:16:29.455Z,32.42
2018-05-31T15:18:56.336Z,32.22
2018-05-31T15:21:23.160Z,32.54
2018-05-31T15:23:49.940Z,32.17
2018-05-31T15:26:16.756Z,32.12
2018-05-31T15:28:44.379Z,31.89
2018-05-31T15:31:11.149Z,31.90
2018-05-31T15:33:37.969Z,32.13
2018-05-31T15:36:04.922Z,32.25
2018-05-31T15:38:32.435Z,32.46
2018-05-31T15:40:59.313Z,33.27
2018-05-31T15:43:27.239Z,33.24
2018-05-31T15:45:54.009Z,32.75
2018-05-31T15:48:21.221Z,32.90
2018-05-31T15:50:47.996Z,32.96
2018-05-31T15:53:14.816Z,32.26
2018-05-31T15:55:41.636Z,31.88
2018-05-31T15:58:08.404Z,31.64
2018-05-31T16:00:35.243Z,30.87
2018-05-31T16:03:02.032Z,30.50
2018-05-31T16:05:29.278Z,30.71
2018-05-31T16:07:56.821Z,30.22
2018-05-31T16:10:23.613Z,30.07
2018-05-31T16:12:50.473Z,29.23
2018-05-31T16:15:23.573Z,28.86
2018-05-31T16:17:51.203Z,28.84
2018-05-31T16:20:17.981Z,28.96
2018-05-31T16:22:44.763Z,28.76
2018-05-31T16:25:12.348Z,28.82
2018-05-31T16:27:39.212Z,28.76
2018-05-31T16:30:06.856Z,28.66
2018-05-31T16:32:33.637Z,28.81
2018-05-31T16:35:00.452Z,28.97
2018-05-31T16:37:27.621Z,29.01
2018-05-31T16:39:54.400Z,28.94
2018-05-31T16:42:21.229Z,29.04
2018-05-31T16:44:48.625Z,29.30
2018-05-31T16:47:16.133Z,29.58
2018-05-31T16:49:42.915Z,29.37
2018-05-31T16:52:10.478Z,29.51
2018-05-31T16:54:37.316Z,29.69
2018-05-31T16:57:04.914Z,29.71
2018-05-31T16:59:31.703Z,29.70
2018-05-31T17:01:58.604Z,29.46
2018-05-31T17:04:26.119Z,29.43
2018-05-31T17:06:53.747Z,29.54
2018-05-31T17:09:20.566Z,29.74
2018-05-31T17:11:47.340Z,29.57
2018-05-31T17:14:20.208Z,29.52
2018-05-31T17:16:46.989Z,29.66
2018-05-31T17:19:13.824Z,29.57
2018-05-31T17:21:40.631Z,29.40
2018-05-31T17:24:07.433Z,29.31
2018-05-31T17:26:34.957Z,29.26
2018-05-31T17:29:02.542Z,29.44
2018-05-31T17:31:29.372Z,29.45
2018-05-31T17:33:56.203Z,29.31
2018-05-31T17:36:22.832Z,29.36
2018-05-31T17:38:51.078Z,29.39
2018-05-31T17:41:17.875Z,29.60
2018-05-31T17:43:44.704Z,29.44
2018-05-31T17:46:11.592Z,29.37
2018-05-31T17:48:39.115Z,29.45
2018-05-31T17:51:05.956Z,28.89
2018-05-31T17:53:32.739Z,28.49
2018-05-31T17:55:59.940Z,28.52
2018-05-31T17:58:26.768Z,28.51
2018-05-31T18:00:53.553Z,28.42
2018-05-31T18:03:21.147Z,28.37
2018-05-31T18:05:47.943Z,28.24
2018-05-31T18:08:14.791Z,28.23
2018-05-31T18:10:41.611Z,28.27
2018-05-31T18:13:08.500Z,28.04
2018-05-31T18:15:35.324Z,28.03
2018-05-31T18:18:02.095Z,28.05
2018-05-31T18:20:28.930Z,27.95
2018-05-31T18:22:56.546Z,27.78
2018-05-31T18:25:23.334Z,27.80
2018-05-31T18:27:50.901Z,28.03
2018-05-31T18:30:18.426Z,27.90
2018-05-31T18:32:45.302Z,27.67
2018-05-31T18:35:13.008Z,27.63
2018-05-31T18:37:39.808Z,27.68
2018-05-31T18:40:06.591Z,27.59
2018-05-31T18:42:34.176Z,27.64
2018-05-31T18:45:01.027Z,27.43
2018-05-31T18:47:27.868Z,27.48
2018-05-31T18:49:54.669Z,27.50
2018-05-31T18:52:21.436Z,27.37
2018-05-31T18:54:48.214Z,27.34
2018-05-31T18:57:15.104Z,27.26
2018-05-31T18:59:41.943Z,27.21
2018-05-31T19:02:08.728Z,27.19
2018-05-31T19:04:35.508Z,27.23
2018-05-31T19:07:03.124Z,27.11
2018-05-31T19:09:33.756Z,27.25
2018-05-31T19:12:00.570Z,27.27
2018-05-31T19:14:27.423Z,27.37
2018-05-31T19:16:54.259Z,27.03
2018-05-31T19:19:27.121Z,26.78
2018-05-31T19:21:54.082Z,27.00
2018-05-31T19:24:26.876Z,26.77
2018-05-31T19:26:53.723Z,26.81
2018-05-31T19:29:21.244Z,27.10
2018-05-31T19:31:48.840Z,26.96
2018-05-31T19:34:15.723Z,27.11
2018-05-31T19:36:48.688Z,27.02
2018-05-31T19:39:15.511Z,26.93
2018-05-31T19:41:42.284Z,26.43
2018-05-31T19:44:15.105Z,26.17
2018-05-31T19:46:41.965Z,26.17
2018-05-31T19:49:09.615Z,26.10
2018-05-31T19:51:42.676Z,25.98
2018-05-31T19:54:09.593Z,25.88
2018-05-31T19:56:36.417Z,25.67
2018-05-31T19:59:09.384Z,25.78
2018-05-31T20:01:42.959Z,25.69
2018-05-31T20:04:09.913Z,25.68
2018-05-31T20:06:36.792Z,25.56
2018-05-31T20:09:04.177Z,25.46
2018-05-31T20:11:31.227Z,25.14
2018-05-31T20:13:58.283Z,25.06
2018-05-31T20:16:25.234Z,25.04
2018-05-31T20:18:52.198Z,25.12
2018-05-31T20:21:19.264Z,24.95
2018-05-31T20:23:47.439Z,25.27
2018-05-31T20:26:15.725Z,25.08
2018-05-31T20:28:42.817Z,25.03
2018-05-31T20:31:09.865Z,24.98
2018-05-31T20:33:37.224Z,24.81
2018-05-31T20:36:04.874Z,24.87
2018-05-31T20:38:31.909Z,24.77
2018-05-31T20:40:59.838Z,24.92
2018-05-31T20:43:26.637Z,24.83
2018-05-31T20:45:54.486Z,24.75
2018-05-31T20:48:22.058Z,24.62
2018-05-31T20:50:48.892Z,24.70
2018-05-31T20:53:16.409Z,24.61
2018-05-31T20:55:43.236Z,24.56
2018-05-31T20:58:10.074Z,24.67
2018-05-31T21:00:36.893Z,24.53
2018-05-31T21:03:03.713Z,24.49
2018-05-31T21:05:31.567Z,24.53
2018-05-31T21:07:58.367Z,24.46
2018-05-31T21:10:25.946Z,24.27
2018-05-31T21:12:52.771Z,24.31
2018-05-31T21:15:19.562Z,24.36
2018-05-31T21:17:46.367Z,24.37
2018-05-31T21:20:13.142Z,24.38
2018-05-31T21:22:40.864Z,24.39
2018-05-31T21:25:07.651Z,24.39
2018-05-31T21:27:34.436Z,24.34
2018-05-31T21:30:01.269Z,24.35
2018-05-31T21:32:28.048Z,24.37
2018-05-31T21:34:55.599Z,24.28
2018-05-31T21:37:22.411Z,24.27
2018-05-31T21:39:49.979Z,24.22
2018-05-31T21:42:16.751Z,24.27
2018-05-31T21:44:43.514Z,24.42
2018-05-31T21:47:10.421Z,24.29
2018-05-31T21:49:37.195Z,24.41
2018-05-31T21:52:04.138Z,24.38
2018-05-31T21:54:30.917Z,24.22
2018-05-31T21:56:58.485Z,24.25
2018-05-31T21:59:25.532Z,23.70
2018-05-31T22:01:53.108Z,23.83
2018-05-31T22:04:19.984Z,23.85
2018-05-31T22:06:46.812Z,23.53
2018-05-31T22:09:13.707Z,23.40
2018-05-31T22:11:41.260Z,23.43
2018-05-31T22:14:08.044Z,23.52
2018-05-31T22:16:34.904Z,23.66
2018-05-31T22:19:01.677Z,23.77
2018-05-31T22:21:28.520Z,23.65
2018-05-31T22:23:57.062Z,23.72
2018-05-31T22:26:23.893Z,23.55
2018-05-31T22:28:51.400Z,23.42
2018-05-31T22:31:18.242Z,23.46
2018-05-31T22:33:45.018Z,23.62
2018-05-31T22:36:11.844Z,23.60
2018-05-31T22:38:38.664Z,23.39
2018-05-31T22:41:05.501Z,23.37
2018-05-31T22:43:32.495Z,23.40
2018-05-31T22:45:59.634Z,23.35
2018-05-31T22:48:26.471Z,23.40
2018-05-31T22:50:53.244Z,23.55
2018-05-31T22:53:20.173Z,23.60
2018-05-31T22:55:47.776Z,23.34
2018-05-31T22:58:14.681Z,23.40
2018-05-31T23:00:41.762Z,23.42
2018-05-31T23:03:08.558Z,23.35
2018-05-31T23:05:35.378Z,23.36
2018-05-31T23:08:02.148Z,23.39
2018-05-31T23:10:28.922Z,23.36
2018-05-31T23:12:55.801Z,23.42
2018-05-31T23:15:22.637Z,23.37
2018-05-31T23:17:49.658Z,23.36
2018-05-31T23:20:17.234Z,23.46
2018-05-31T23:22:44.060Z,23.49
2018-05-31T23:25:10.908Z,23.38
2018-05-31T23:27:38.475Z,23.50
2018-05-31T23:30:06.050Z,23.68
2018-05-31T23:32:32.824Z,23.48
2018-05-31T23:34:59.609Z,23.49
2018-05-31T23:37:26.468Z,23.64
2018-05-31T23:39:53.999Z,23.49
2018-05-31T23:42:20.828Z,23.43
2018-05-31T23:44:47.634Z,23.41
2018-05-31T23:47:14.464Z,23.35
2018-05-31T23:49:41.309Z,23.44
2018-05-31T23:52:08.000Z,23.45
2018-05-31T23:54:34.632Z,23.34
2018-05-31T23:57:01.304Z,23.50
2018-05-31T23:59:27.932Z,23.30
